Addison, Texas
Current Conditions -  °F | °C
As of 1:47 PM on Saturday 20 Dec 2014 (Local Time) from KADS Reporting Station
Overcast Overcast  
Wind Chill: 44°   Ceiling: 700
Heat Index: 46°   Visibility: 7mi
Dew Point: 43°   Wind: 5mph
Humidity: 87%   Direction: 340°NNW
Pressure: 30.21"   Gusts: NA
Location:  32.95°N, 96.82°W
Report Text: KADS 201947Z 34004KT 7SM OVC007 08/06 A3021
Loading
Personal Weather Stations






























Interactive Weather Map New forecast layout! Learn more

10-Day Weather Forecast

Advertisements
Track Severe Weather on mobile